createdAt,value
2018-11-07T00:01:18.757Z,83.15
2018-11-07T00:03:30.983Z,84.91
2018-11-07T00:05:43.198Z,84.79
2018-11-07T00:07:55.517Z,83.83
2018-11-07T00:10:08.036Z,84.08
2018-11-07T00:12:20.255Z,83.62
2018-11-07T00:14:32.547Z,84.49
2018-11-07T00:16:44.766Z,84.53
2018-11-07T00:18:56.966Z,83.87
2018-11-07T00:21:09.187Z,83.85
2018-11-07T00:23:21.401Z,84.47
2018-11-07T00:25:33.640Z,84.36
2018-11-07T00:27:45.811Z,83.63
2018-11-07T00:29:58.058Z,84.14
2018-11-07T00:32:10.265Z,84.08
2018-11-07T00:34:22.491Z,84.04
2018-11-07T00:36:34.702Z,83.24
2018-11-07T00:38:46.933Z,83.41
2018-11-07T00:40:59.159Z,83.83
2018-11-07T00:43:11.389Z,83.57
2018-11-07T00:45:23.632Z,83.41
2018-11-07T00:47:35.935Z,83.01
2018-11-07T00:49:48.136Z,83.49
2018-11-07T00:52:00.370Z,83.08
2018-11-07T00:54:12.624Z,83.67
2018-11-07T00:56:24.873Z,82.93
2018-11-07T00:58:37.097Z,83.63
2018-11-07T01:00:49.316Z,83.76
2018-11-07T01:03:01.526Z,83.64
2018-11-07T01:05:13.990Z,82.81
2018-11-07T01:07:26.194Z,83.66
2018-11-07T01:09:38.587Z,83.02
2018-11-07T01:11:50.711Z,83.64
2018-11-07T01:14:02.920Z,83.24
2018-11-07T01:16:15.154Z,83.00
2018-11-07T01:18:27.426Z,83.47
2018-11-07T01:20:39.733Z,83.81
2018-11-07T01:22:51.891Z,84.39
2018-11-07T01:25:05.569Z,84.56
2018-11-07T01:27:17.757Z,85.25
2018-11-07T01:29:29.930Z,85.29
2018-11-07T01:31:42.255Z,85.60
2018-11-07T01:33:54.454Z,85.61
2018-11-07T01:36:06.705Z,85.38
2018-11-07T01:38:18.892Z,84.93
2018-11-07T01:40:31.091Z,84.66
2018-11-07T01:42:43.716Z,85.31
2018-11-07T01:44:55.969Z,85.38
2018-11-07T01:47:08.230Z,84.96
2018-11-07T01:49:20.447Z,84.97
2018-11-07T01:51:32.683Z,84.82
2018-11-07T01:53:44.877Z,84.03
2018-11-07T01:55:57.088Z,84.62
2018-11-07T01:58:09.367Z,84.74
2018-11-07T02:00:21.619Z,83.73
2018-11-07T02:02:33.942Z,84.37
2018-11-07T02:04:46.126Z,84.40
2018-11-07T02:06:58.423Z,83.80
2018-11-07T02:09:10.806Z,83.94
2018-11-07T02:11:22.999Z,84.01
2018-11-07T02:13:41.343Z,83.67
2018-11-07T02:15:54.423Z,84.53
2018-11-07T02:18:06.897Z,83.83
2018-11-07T02:20:19.090Z,83.70
2018-11-07T02:22:31.280Z,83.68
2018-11-07T02:24:43.511Z,84.02
2018-11-07T02:26:55.830Z,83.82
2018-11-07T02:29:12.689Z,84.02
2018-11-07T02:31:24.922Z,84.28
2018-11-07T02:33:37.158Z,84.50
2018-11-07T02:35:49.393Z,83.36
2018-11-07T02:38:01.608Z,84.34
2018-11-07T02:40:13.803Z,83.56
2018-11-07T02:42:26.081Z,84.21
2018-11-07T02:44:38.266Z,83.86
2018-11-07T02:46:50.442Z,84.73
2018-11-07T02:49:02.948Z,84.75
2018-11-07T02:51:15.155Z,84.84
2018-11-07T02:53:27.341Z,84.46
2018-11-07T02:55:39.532Z,85.08
2018-11-07T02:57:51.712Z,84.94
2018-11-07T03:00:05.824Z,84.34
2018-11-07T03:02:18.035Z,85.26
2018-11-07T03:04:30.217Z,85.08
2018-11-07T03:06:42.417Z,84.26
2018-11-07T03:08:54.698Z,84.24
2018-11-07T03:11:06.890Z,84.42
2018-11-07T03:13:19.083Z,85.18
2018-11-07T03:15:31.301Z,84.37
2018-11-07T03:17:43.500Z,84.47
2018-11-07T03:19:55.701Z,84.26
2018-11-07T03:22:08.001Z,84.09
2018-11-07T03:24:20.252Z,84.00
2018-11-07T03:26:32.470Z,84.14
2018-11-07T03:28:44.678Z,83.83
2018-11-07T03:30:56.983Z,83.83
2018-11-07T03:33:09.167Z,84.67
2018-11-07T03:35:27.899Z,83.88
2018-11-07T03:37:40.104Z,83.93
2018-11-07T03:39:52.354Z,84.73
2018-11-07T03:42:04.646Z,83.71
2018-11-07T03:44:16.823Z,83.77
2018-11-07T03:46:29.050Z,84.30
2018-11-07T03:48:41.243Z,83.40
2018-11-07T03:50:53.535Z,83.84
2018-11-07T03:53:05.952Z,83.62
2018-11-07T03:55:18.205Z,83.51
2018-11-07T03:57:30.496Z,83.30
2018-11-07T03:59:42.690Z,84.18
2018-11-07T04:01:54.881Z,84.23
2018-11-07T04:04:07.107Z,84.00
2018-11-07T04:06:19.301Z,84.03
2018-11-07T04:08:31.538Z,83.03
2018-11-07T04:10:43.726Z,82.68
2018-11-07T04:12:55.932Z,82.92
2018-11-07T04:15:08.736Z,83.88
2018-11-07T04:17:20.959Z,83.28
2018-11-07T04:19:33.156Z,83.52
2018-11-07T04:21:45.351Z,83.59
2018-11-07T04:24:02.260Z,83.06
2018-11-07T04:26:14.443Z,83.96
2018-11-07T04:28:26.665Z,82.92
2018-11-07T04:30:38.949Z,82.95
2018-11-07T04:32:51.123Z,83.17
2018-11-07T04:35:03.382Z,83.12
2018-11-07T04:37:15.611Z,83.66
2018-11-07T04:39:27.811Z,82.80
2018-11-07T04:41:39.981Z,82.94
2018-11-07T04:43:52.195Z,83.67
2018-11-07T04:46:04.447Z,82.61
2018-11-07T04:48:16.705Z,83.54
2018-11-07T04:50:28.938Z,83.47
2018-11-07T04:52:41.138Z,83.79
2018-11-07T04:54:53.388Z,83.69
2018-11-07T04:57:06.051Z,83.96
2018-11-07T04:59:18.259Z,83.94
2018-11-07T05:01:30.539Z,83.10
2018-11-07T05:03:42.735Z,83.55
2018-11-07T05:05:54.931Z,83.34
2018-11-07T05:08:07.105Z,84.02
2018-11-07T05:10:19.338Z,83.40
2018-11-07T05:12:31.532Z,84.00
2018-11-07T05:14:43.768Z,83.39
2018-11-07T05:16:56.044Z,84.01
2018-11-07T05:19:08.234Z,83.41
2018-11-07T05:21:20.422Z,83.71
2018-11-07T05:23:32.628Z,82.96
2018-11-07T05:25:44.846Z,83.88
2018-11-07T05:27:57.046Z,83.98
2018-11-07T05:30:10.038Z,83.81
2018-11-07T05:32:22.269Z,84.01
2018-11-07T05:34:34.471Z,83.25
2018-11-07T05:36:47.640Z,84.14
2018-11-07T05:38:59.918Z,83.61
2018-11-07T05:41:12.212Z,87.56
2018-11-07T05:43:24.370Z,87.29
2018-11-07T05:45:36.648Z,85.94
2018-11-07T05:47:48.928Z,84.76
2018-11-07T05:50:01.132Z,83.27
2018-11-07T05:52:13.376Z,83.80
2018-11-07T05:54:25.622Z,83.80
2018-11-07T05:56:37.807Z,83.11
2018-11-07T05:58:50.159Z,83.27
2018-11-07T06:01:02.406Z,82.72
2018-11-07T06:03:14.647Z,82.72
2018-11-07T06:05:26.858Z,83.44
2018-11-07T06:07:39.708Z,83.36
2018-11-07T06:09:51.954Z,83.26
2018-11-07T06:12:04.357Z,82.35
2018-11-07T06:14:16.589Z,82.85
2018-11-07T06:16:28.821Z,82.97
2018-11-07T06:18:41.059Z,83.04
2018-11-07T06:20:53.291Z,83.14
2018-11-07T06:23:06.423Z,82.18
2018-11-07T06:25:18.654Z,81.91
2018-11-07T06:27:31.183Z,82.96
2018-11-07T06:29:43.471Z,82.40
2018-11-07T06:31:55.712Z,83.36
2018-11-07T06:34:07.958Z,83.31
2018-11-07T06:36:20.137Z,82.78
2018-11-07T06:38:32.349Z,83.47
2018-11-07T06:40:44.577Z,83.40
2018-11-07T06:42:56.774Z,83.20
2018-11-07T06:45:09.860Z,83.45
2018-11-07T06:47:22.173Z,82.75
2018-11-07T06:49:34.411Z,83.28
2018-11-07T06:51:46.676Z,82.61
2018-11-07T06:53:58.903Z,82.60
2018-11-07T06:56:11.298Z,83.55
2018-11-07T06:58:23.470Z,83.58
2018-11-07T07:00:35.747Z,82.79
2018-11-07T07:02:48.051Z,83.24
2018-11-07T07:05:00.258Z,83.15
2018-11-07T07:07:12.486Z,83.05
2018-11-07T07:09:24.765Z,83.69
2018-11-07T07:11:36.990Z,83.08
2018-11-07T07:13:49.273Z,83.53
2018-11-07T07:16:01.636Z,83.51
2018-11-07T07:18:13.947Z,83.09
2018-11-07T07:20:26.120Z,82.77
2018-11-07T07:22:38.708Z,84.04
2018-11-07T07:24:50.922Z,83.25
2018-11-07T07:27:03.131Z,83.97
2018-11-07T07:29:15.459Z,83.41
2018-11-07T07:31:27.826Z,82.88
2018-11-07T07:33:40.157Z,83.71
2018-11-07T07:35:52.360Z,84.53
2018-11-07T07:38:05.128Z,84.90
2018-11-07T07:40:17.374Z,83.88
2018-11-07T07:42:29.707Z,84.21
2018-11-07T07:44:41.939Z,83.88
2018-11-07T07:46:54.188Z,83.21
2018-11-07T07:49:06.462Z,82.31
2018-11-07T07:51:18.672Z,81.88
2018-11-07T07:53:30.927Z,81.28
2018-11-07T07:55:43.179Z,81.36
2018-11-07T07:57:55.405Z,80.30
2018-11-07T08:00:19.189Z,78.78
2018-11-07T08:02:31.405Z,77.21
2018-11-07T08:04:43.683Z,75.83
2018-11-07T08:06:55.959Z,74.43
2018-11-07T08:09:10.252Z,73.02
2018-11-07T08:11:22.494Z,71.96
2018-11-07T08:13:34.795Z,70.07
2018-11-07T08:15:46.891Z,68.97
2018-11-07T08:17:59.115Z,68.58
2018-11-07T08:20:12.369Z,67.84
2018-11-07T08:22:24.646Z,67.42
2018-11-07T08:24:36.852Z,66.49
2018-11-07T08:26:49.094Z,66.25
2018-11-07T08:29:01.412Z,66.76
2018-11-07T08:31:13.610Z,65.80
2018-11-07T08:33:25.886Z,66.82
2018-11-07T08:35:38.119Z,66.30
2018-11-07T08:37:50.342Z,66.09
2018-11-07T08:40:02.855Z,64.68
2018-11-07T08:42:15.908Z,63.87
2018-11-07T08:44:28.144Z,63.24
2018-11-07T08:46:40.410Z,63.01
2018-11-07T08:48:52.675Z,62.76
2018-11-07T08:51:04.982Z,62.65
2018-11-07T08:53:17.210Z,62.19
2018-11-07T08:55:29.514Z,61.96
2018-11-07T08:57:41.821Z,61.24
2018-11-07T08:59:54.033Z,61.22
2018-11-07T09:02:06.390Z,62.08
2018-11-07T09:04:18.691Z,61.83
2018-11-07T09:06:30.988Z,60.95
2018-11-07T09:08:44.125Z,61.06
2018-11-07T09:10:56.365Z,60.88
2018-11-07T09:13:08.625Z,61.36
2018-11-07T09:15:21.933Z,60.43
2018-11-07T09:17:34.271Z,60.36
2018-11-07T09:19:46.563Z,60.17
2018-11-07T09:21:58.864Z,60.63
2018-11-07T09:24:11.142Z,59.92
2018-11-07T09:26:23.386Z,60.80
2018-11-07T09:28:35.619Z,60.98
2018-11-07T09:30:47.872Z,59.74
2018-11-07T09:33:00.152Z,61.08
2018-11-07T09:35:12.844Z,61.66
2018-11-07T09:37:25.092Z,61.60
2018-11-07T09:39:37.433Z,60.85
2018-11-07T09:41:49.718Z,61.54
2018-11-07T09:44:01.976Z,61.08
2018-11-07T09:46:14.214Z,61.65
2018-11-07T09:48:26.551Z,61.48
2018-11-07T09:50:38.821Z,60.96
2018-11-07T09:52:51.088Z,60.45
2018-11-07T09:55:03.925Z,61.02
2018-11-07T09:57:16.143Z,60.17
2018-11-07T09:59:28.441Z,60.93
2018-11-07T10:01:40.647Z,60.76
2018-11-07T10:03:52.907Z,60.18
2018-11-07T10:06:05.217Z,61.39
2018-11-07T10:08:17.449Z,60.72
2018-11-07T10:10:29.676Z,60.72
2018-11-07T10:12:42.258Z,60.59
2018-11-07T10:14:54.514Z,60.52
2018-11-07T10:17:06.731Z,60.79
2018-11-07T10:19:18.988Z,60.63
2018-11-07T10:21:31.237Z,59.81
2018-11-07T10:23:43.499Z,58.53
2018-11-07T10:25:55.794Z,58.42
2018-11-07T10:28:08.545Z,58.98
2018-11-07T10:30:21.021Z,58.75
2018-11-07T10:32:32.993Z,58.35
2018-11-07T10:34:49.083Z,58.06
2018-11-07T10:37:01.306Z,57.47
2018-11-07T10:39:13.704Z,57.38
2018-11-07T10:41:25.977Z,56.11
2018-11-07T10:43:38.204Z,54.50
2018-11-07T10:45:50.441Z,53.00
2018-11-07T10:48:02.683Z,53.24
2018-11-07T10:50:15.855Z,52.88
2018-11-07T10:52:30.872Z,52.64
2018-11-07T10:54:43.152Z,51.82
2018-11-07T10:56:55.374Z,52.17
2018-11-07T10:59:07.566Z,52.12
2018-11-07T11:01:25.636Z,52.17
2018-11-07T11:03:37.886Z,52.15
2018-11-07T11:05:50.064Z,52.98
2018-11-07T11:08:02.297Z,51.34
2018-11-07T11:10:18.550Z,51.29
2018-11-07T11:12:30.867Z,51.07
2018-11-07T11:14:43.220Z,51.67
2018-11-07T11:16:55.487Z,52.24
2018-11-07T11:19:07.736Z,52.19
2018-11-07T11:21:20.839Z,52.11
2018-11-07T11:23:33.075Z,50.33
2018-11-07T11:25:46.257Z,49.37
2018-11-07T11:27:58.471Z,49.42
2018-11-07T11:30:10.678Z,48.84
2018-11-07T11:32:22.936Z,49.55
2018-11-07T11:34:35.323Z,50.31
2018-11-07T11:36:47.405Z,50.50
2018-11-07T11:39:01.404Z,51.47
2018-11-07T11:41:13.729Z,50.86
2018-11-07T11:43:25.868Z,50.87
2018-11-07T11:45:38.104Z,48.53
2018-11-07T11:47:50.337Z,46.88
2018-11-07T11:50:02.946Z,47.23
2018-11-07T11:52:15.184Z,47.11
2018-11-07T11:54:27.419Z,46.45
2018-11-07T11:56:39.615Z,46.77
2018-11-07T11:58:51.963Z,46.64
2018-11-07T12:01:04.160Z,46.48
2018-11-07T12:03:19.194Z,47.30
2018-11-07T12:05:31.432Z,47.37
2018-11-07T12:07:43.695Z,47.69
2018-11-07T12:09:55.928Z,47.87
2018-11-07T12:12:09.030Z,49.45
2018-11-07T12:14:21.209Z,49.34
2018-11-07T12:16:33.542Z,47.60
2018-11-07T12:18:45.855Z,49.03
2018-11-07T12:20:58.132Z,50.23
2018-11-07T12:23:12.333Z,50.42
2018-11-07T12:25:24.755Z,49.80
2018-11-07T12:27:37.170Z,49.86
2018-11-07T12:29:49.459Z,48.81
2018-11-07T12:32:01.719Z,48.46
2018-11-07T12:34:13.943Z,49.57
2018-11-07T12:36:26.301Z,48.67
2018-11-07T12:38:43.480Z,49.42
2018-11-07T12:40:57.577Z,48.86
2018-11-07T12:43:09.806Z,48.28
2018-11-07T12:45:22.925Z,48.58
2018-11-07T12:47:36.528Z,49.00
2018-11-07T12:49:48.817Z,48.81
2018-11-07T12:52:01.031Z,48.53
2018-11-07T12:54:14.299Z,48.29
2018-11-07T12:56:26.600Z,48.28
2018-11-07T12:58:38.829Z,47.97
2018-11-07T13:00:51.092Z,48.37
2018-11-07T13:03:04.399Z,49.26
2018-11-07T13:05:17.674Z,49.81
2018-11-07T13:07:29.939Z,50.00
2018-11-07T13:09:42.203Z,49.39
2018-11-07T13:11:54.399Z,49.83
2018-11-07T13:14:06.687Z,49.38
2018-11-07T13:16:18.941Z,50.11
2018-11-07T13:18:31.175Z,50.34
2018-11-07T13:20:49.957Z,50.18
2018-11-07T13:23:03.092Z,50.82
2018-11-07T13:25:15.859Z,49.65
2018-11-07T13:27:28.221Z,50.69
2018-11-07T13:29:40.495Z,49.74
2018-11-07T13:31:52.710Z,50.20
2018-11-07T13:34:05.075Z,51.46
2018-11-07T13:36:17.305Z,50.64
2018-11-07T13:38:30.650Z,51.14
2018-11-07T13:40:42.619Z,50.83
2018-11-07T13:42:54.885Z,49.88
2018-11-07T13:45:09.154Z,49.87
2018-11-07T13:47:21.354Z,50.30
2018-11-07T13:49:33.555Z,51.47
2018-11-07T13:51:46.711Z,50.99
2018-11-07T13:53:59.985Z,50.86
2018-11-07T13:56:12.263Z,51.13
2018-11-07T13:58:24.511Z,51.24
2018-11-07T14:00:36.799Z,51.78
2018-11-07T14:02:49.709Z,51.51
2018-11-07T14:05:02.784Z,51.52
2018-11-07T14:07:16.049Z,51.49
2018-11-07T14:09:28.309Z,52.03
2018-11-07T14:11:40.612Z,51.77
2018-11-07T14:13:53.150Z,51.35
2018-11-07T14:16:05.544Z,51.53
2018-11-07T14:18:19.562Z,51.94
2018-11-07T14:20:31.800Z,52.59
2018-11-07T14:22:44.065Z,52.98
2018-11-07T14:24:59.163Z,53.26
2018-11-07T14:27:11.460Z,52.22
2018-11-07T14:29:23.734Z,52.22
2018-11-07T14:31:36.028Z,52.68
2018-11-07T14:33:48.322Z,52.33
2018-11-07T14:36:00.526Z,53.02
2018-11-07T14:38:12.789Z,52.63
2018-11-07T14:40:25.910Z,52.72
2018-11-07T14:42:38.467Z,53.13
2018-11-07T14:44:50.715Z,52.85
2018-11-07T14:47:02.955Z,53.79
2018-11-07T14:49:15.205Z,53.95
2018-11-07T14:51:27.547Z,53.33
2018-11-07T14:53:39.906Z,53.32
2018-11-07T14:55:52.023Z,53.60
2018-11-07T14:58:04.300Z,54.54
2018-11-07T15:00:17.097Z,54.32
2018-11-07T15:02:29.383Z,55.02
2018-11-07T15:04:41.608Z,55.39
2018-11-07T15:06:53.828Z,55.90
2018-11-07T15:09:07.906Z,56.22
2018-11-07T15:11:20.226Z,56.61
2018-11-07T15:13:32.431Z,57.66
2018-11-07T15:15:44.651Z,58.09
2018-11-07T15:17:56.892Z,57.61
2018-11-07T15:20:10.319Z,58.12
2018-11-07T15:22:22.575Z,58.24
2018-11-07T15:24:35.887Z,58.72
2018-11-07T15:26:48.119Z,59.08
2018-11-07T15:29:00.405Z,59.63
2018-11-07T15:31:12.661Z,59.96
2018-11-07T15:33:25.011Z,60.72
2018-11-07T15:35:37.306Z,61.23
2018-11-07T15:37:49.593Z,61.53
2018-11-07T15:40:01.926Z,62.25
2018-11-07T15:42:14.217Z,61.81
2018-11-07T15:44:26.505Z,62.69
2018-11-07T15:46:38.993Z,62.94
2018-11-07T15:48:51.259Z,63.08
2018-11-07T15:51:09.114Z,63.61
2018-11-07T15:53:21.442Z,63.71
2018-11-07T15:55:33.713Z,63.23
2018-11-07T15:57:45.947Z,64.30
2018-11-07T15:59:58.286Z,64.89
2018-11-07T16:02:10.526Z,64.81
2018-11-07T16:04:22.804Z,64.64
2018-11-07T16:06:35.067Z,63.52
2018-11-07T16:08:47.335Z,64.82
2018-11-07T16:10:59.558Z,65.65
2018-11-07T16:13:11.891Z,65.00
2018-11-07T16:15:24.137Z,65.65
2018-11-07T16:17:36.333Z,65.70
2018-11-07T16:19:48.554Z,66.99
2018-11-07T16:22:00.785Z,67.01
2018-11-07T16:24:13.058Z,66.69
2018-11-07T16:26:25.307Z,67.09
2018-11-07T16:28:37.641Z,67.99
2018-11-07T16:30:49.818Z,68.27
2018-11-07T16:33:02.095Z,68.21
2018-11-07T16:35:14.823Z,67.88
2018-11-07T16:37:27.044Z,67.84
2018-11-07T16:39:39.313Z,67.98
2018-11-07T16:41:51.718Z,68.45
2018-11-07T16:44:03.905Z,69.09
2018-11-07T16:46:16.160Z,69.76
2018-11-07T16:48:28.522Z,70.21
2018-11-07T16:50:40.720Z,70.04
2018-11-07T16:52:52.999Z,69.52
2018-11-07T16:55:05.358Z,69.82
2018-11-07T16:57:17.643Z,69.54
2018-11-07T16:59:29.898Z,69.47
2018-11-07T17:01:42.178Z,70.27
2018-11-07T17:03:54.405Z,69.73
2018-11-07T17:06:06.666Z,70.18
2018-11-07T17:08:18.882Z,71.14
2018-11-07T17:10:31.075Z,71.15
2018-11-07T17:12:43.425Z,70.32
2018-11-07T17:14:55.716Z,70.64
2018-11-07T17:17:07.970Z,70.37
2018-11-07T17:19:20.187Z,71.23
2018-11-07T17:21:32.468Z,71.43
2018-11-07T17:23:45.377Z,71.66
2018-11-07T17:25:57.632Z,71.42
2018-11-07T17:28:09.871Z,72.46
2018-11-07T17:30:22.127Z,72.01
2018-11-07T17:32:34.352Z,72.72
2018-11-07T17:34:46.810Z,72.16
2018-11-07T17:36:59.068Z,73.15
2018-11-07T17:39:11.303Z,72.34
2018-11-07T17:41:23.557Z,72.44
2018-11-07T17:43:35.822Z,73.45
2018-11-07T17:45:48.078Z,72.80
2018-11-07T17:48:00.491Z,73.24
2018-11-07T17:50:13.981Z,72.92
2018-11-07T17:52:26.250Z,74.10
2018-11-07T17:54:38.463Z,74.27
2018-11-07T17:56:50.776Z,74.13
2018-11-07T17:59:03.102Z,74.03
2018-11-07T18:01:15.364Z,74.63
2018-11-07T18:03:27.706Z,74.65
2018-11-07T18:05:39.987Z,74.49
2018-11-07T18:07:52.259Z,74.45
2018-11-07T18:10:06.820Z,74.12
2018-11-07T18:12:19.043Z,74.76
2018-11-07T18:14:31.327Z,74.17
2018-11-07T18:16:43.583Z,74.80
2018-11-07T18:18:55.874Z,75.01
2018-11-07T18:21:08.062Z,75.25
2018-11-07T18:23:20.353Z,74.98
2018-11-07T18:25:32.582Z,75.48
2018-11-07T18:27:44.893Z,74.87
2018-11-07T18:29:57.207Z,75.72
2018-11-07T18:32:09.523Z,75.30
2018-11-07T18:34:21.742Z,76.21
2018-11-07T18:36:33.989Z,76.33
2018-11-07T18:38:46.272Z,76.36
2018-11-07T18:40:58.643Z,75.73
2018-11-07T18:43:10.959Z,76.56
2018-11-07T18:45:23.162Z,76.86
2018-11-07T18:47:35.484Z,76.38
2018-11-07T18:49:47.744Z,75.85
2018-11-07T18:52:00.056Z,75.78
2018-11-07T18:54:12.271Z,75.73
2018-11-07T18:56:24.535Z,75.79
2018-11-07T18:58:36.957Z,76.44
2018-11-07T19:00:49.139Z,76.38
2018-11-07T19:03:01.385Z,76.77
2018-11-07T19:05:13.682Z,76.15
2018-11-07T19:07:25.972Z,76.20
2018-11-07T19:09:38.238Z,76.86
2018-11-07T19:11:50.535Z,76.59
2018-11-07T19:14:02.843Z,76.82
2018-11-07T19:16:15.067Z,76.73
2018-11-07T19:18:27.321Z,76.47
2018-11-07T19:20:39.590Z,77.34
2018-11-07T19:22:51.902Z,77.28
2018-11-07T19:25:05.503Z,76.83
2018-11-07T19:27:17.873Z,76.89
2018-11-07T19:29:30.046Z,77.53
2018-11-07T19:31:42.343Z,77.46
2018-11-07T19:33:54.656Z,76.84
2018-11-07T19:36:06.863Z,77.17
2018-11-07T19:38:19.210Z,76.95
2018-11-07T19:40:31.522Z,77.23
2018-11-07T19:42:43.738Z,77.61
2018-11-07T19:44:56.008Z,77.74
2018-11-07T19:47:08.315Z,77.81
2018-11-07T19:49:20.586Z,77.69
2018-11-07T19:51:33.043Z,78.47
2018-11-07T19:53:45.346Z,78.61
2018-11-07T19:55:57.571Z,78.97
2018-11-07T19:58:09.891Z,79.16
2018-11-07T20:00:22.111Z,79.02
2018-11-07T20:02:34.390Z,78.35
2018-11-07T20:04:46.691Z,78.82
2018-11-07T20:06:58.951Z,78.01
2018-11-07T20:09:11.195Z,78.63
2018-11-07T20:11:23.485Z,78.85
2018-11-07T20:13:35.737Z,78.11
2018-11-07T20:15:48.001Z,78.22
2018-11-07T20:18:00.248Z,78.45
2018-11-07T20:20:12.998Z,78.76
2018-11-07T20:22:25.208Z,78.71
2018-11-07T20:24:37.448Z,78.48
2018-11-07T20:26:49.707Z,78.68
2018-11-07T20:29:02.017Z,79.26
2018-11-07T20:31:14.329Z,78.45
2018-11-07T20:33:27.258Z,78.44
2018-11-07T20:35:39.615Z,79.19
2018-11-07T20:37:51.819Z,79.21
2018-11-07T20:40:05.391Z,78.64
2018-11-07T20:42:17.696Z,79.54
2018-11-07T20:44:29.986Z,78.75
2018-11-07T20:46:42.313Z,78.93
2018-11-07T20:48:54.587Z,79.15
2018-11-07T20:51:06.876Z,78.50
2018-11-07T20:53:19.295Z,78.47
2018-11-07T20:55:31.556Z,79.13
2018-11-07T20:57:43.836Z,78.53
2018-11-07T20:59:56.147Z,78.60
2018-11-07T21:02:08.455Z,78.67
2018-11-07T21:04:20.715Z,78.89
2018-11-07T21:06:32.939Z,78.68
2018-11-07T21:08:45.189Z,78.62
2018-11-07T21:10:57.434Z,78.86
2018-11-07T21:13:09.691Z,78.57
2018-11-07T21:15:22.001Z,78.72
2018-11-07T21:17:34.328Z,79.50
2018-11-07T21:19:46.624Z,78.73
2018-11-07T21:21:58.885Z,79.25
2018-11-07T21:24:11.120Z,79.44
2018-11-07T21:26:23.431Z,79.69
2018-11-07T21:28:35.661Z,79.41
2018-11-07T21:30:48.008Z,79.31
2018-11-07T21:33:00.272Z,79.12
2018-11-07T21:35:13.339Z,79.60
2018-11-07T21:37:25.651Z,79.27
2018-11-07T21:39:37.927Z,79.46
2018-11-07T21:41:50.161Z,78.53
2018-11-07T21:44:02.545Z,79.26
2018-11-07T21:46:14.755Z,79.23
2018-11-07T21:48:26.974Z,79.28
2018-11-07T21:50:39.280Z,78.89
2018-11-07T21:52:51.586Z,79.24
2018-11-07T21:55:04.530Z,78.85
2018-11-07T21:57:16.791Z,79.14
2018-11-07T21:59:29.029Z,79.54
2018-11-07T22:01:41.273Z,79.30
2018-11-07T22:03:53.503Z,78.69
2018-11-07T22:06:05.750Z,78.49
2018-11-07T22:08:18.009Z,78.39
2018-11-07T22:10:30.246Z,79.21
2018-11-07T22:12:42.481Z,79.47
2018-11-07T22:14:54.787Z,79.27
2018-11-07T22:17:07.168Z,79.10
2018-11-07T22:19:19.407Z,78.39
2018-11-07T22:21:31.654Z,78.96
2018-11-07T22:23:43.894Z,78.36
2018-11-07T22:25:56.104Z,78.36
2018-11-07T22:28:08.363Z,78.91
2018-11-07T22:30:20.612Z,79.03
2018-11-07T22:32:32.834Z,78.88
2018-11-07T22:34:45.142Z,79.02
2018-11-07T22:36:57.421Z,78.91
2018-11-07T22:39:11.876Z,78.26
2018-11-07T22:41:24.222Z,78.87
2018-11-07T22:43:36.436Z,78.94
2018-11-07T22:45:48.659Z,78.15
2018-11-07T22:48:00.869Z,78.51
2018-11-07T22:50:14.098Z,78.21
2018-11-07T22:52:26.402Z,79.09
2018-11-07T22:54:38.592Z,79.15
2018-11-07T22:56:50.871Z,78.98
2018-11-07T22:59:03.093Z,79.50
2018-11-07T23:01:22.108Z,78.55
2018-11-07T23:03:34.337Z,79.33
2018-11-07T23:05:46.574Z,78.94
2018-11-07T23:07:58.816Z,79.55
2018-11-07T23:10:11.016Z,79.60
2018-11-07T23:12:23.250Z,78.84
2018-11-07T23:14:35.476Z,79.85
2018-11-07T23:16:47.667Z,78.88
2018-11-07T23:18:59.955Z,79.46
2018-11-07T23:21:12.228Z,79.33
2018-11-07T23:23:24.467Z,78.95
2018-11-07T23:25:36.657Z,79.69
2018-11-07T23:27:48.964Z,78.84
2018-11-07T23:30:01.177Z,79.79
2018-11-07T23:32:13.402Z,79.82
2018-11-07T23:34:25.598Z,79.10
2018-11-07T23:36:37.803Z,79.23
2018-11-07T23:38:50.266Z,79.39
2018-11-07T23:41:02.451Z,80.11
2018-11-07T23:43:14.716Z,79.37
2018-11-07T23:45:26.914Z,80.24
2018-11-07T23:47:39.200Z,79.68
2018-11-07T23:49:51.387Z,79.54
2018-11-07T23:52:03.726Z,80.30
2018-11-07T23:54:16.984Z,80.28
2018-11-07T23:56:29.150Z,80.07
2018-11-07T23:58:41.391Z,80.29
